Terminal Aerodrome Forecast
Issued by NWS

Home | Current Version | Previous Version | Text Only | Print | Product List | Glossary On
Versions: 1 2 3 4 5 6 7 8 9 10 11 12 13 14 15
000
FTUS44 KLIX 291120
TAFHUM
TAF
KHUM 291120Z 2912/3012 13017G22KT P6SM OVC015
     FM291500 15020G28KT P6SM BKN020
     FM292000 14025G30KT P6SM OVC050=

USA.gov is the U.S. government's official web portal to all federal, state and local government web resources and services.